Time;durP1;ratioP1;P1;durP2;ratioP2;P2;SDS_P1;SDS_P2;PMS_P1;PMS_P2;Temp;Humidity;BMP_temperature;BMP_pressure;BME280_temperature;BME280_humidity;BME280_pressure;Samples;Min_cycle;Max_cycle;Signal;HPM_P1;HPM_P2
2022/08/12 00:44:45;;;;;;;3.90;2.63;;;;;;;17.99;76.60;100093.34;4898251;29;20044;-65
2022/08/12 00:47:13;;;;;;;5.05;3.10;;;;;;;17.96;76.69;100084.59;4900296;29;20028;-65
2022/08/12 00:49:40;;;;;;;6.75;2.83;;;;;;;17.96;76.49;100096.25;4897842;29;20025;-65
2022/08/12 00:52:09;;;;;;;4.80;2.95;;;;;;;17.92;76.67;100092.00;4897841;29;20446;-65
2022/08/12 00:54:45;;;;;;;5.55;3.28;;;;;;;17.86;77.76;100097.75;4898246;29;20020;-65
2022/08/12 00:57:16;;;;;;;4.60;2.63;;;;;;;17.85;78.19;100090.66;4898472;29;20115;-65
2022/08/12 00:59:50;;;;;;;5.28;2.75;;;;;;;17.81;78.73;100097.19;4898295;29;20056;-65
2022/08/12 01:02:25;;;;;;;5.28;3.22;;;;;;;17.80;79.42;100095.47;4898334;29;20059;-65
2022/08/12 01:13:13;;;;;;;6.80;3.65;;;;;;;17.68;79.41;100101.56;4898535;29;20039;-65
2022/08/12 01:15:39;;;;;;;10.20;3.80;;;;;;;17.65;79.77;100092.81;4897882;29;20033;-65
2022/08/12 01:18:05;;;;;;;5.20;2.97;;;;;;;17.62;79.38;100085.81;4898183;29;20083;-65
2022/08/12 01:20:40;;;;;;;7.20;3.22;;;;;;;17.70;79.75;100096.97;4898097;29;20031;-65
2022/08/12 01:23:26;;;;;;;5.93;2.90;;;;;;;17.67;79.65;100097.16;4897186;29;20093;-65
2022/08/12 01:25:54;;;;;;;5.72;2.67;;;;;;;17.63;79.29;100100.97;4881380;29;20071;-65
2022/08/12 01:28:25;;;;;;;5.78;3.35;;;;;;;17.61;79.07;100104.72;4897951;29;20108;-65
2022/08/12 01:30:53;;;;;;;7.90;2.90;;;;;;;17.52;79.38;100103.44;4896934;29;20033;-65
2022/08/12 01:33:20;;;;;;;5.47;2.78;;;;;;;17.51;79.49;100107.06;4896883;29;20044;-65
2022/08/12 01:35:57;;;;;;;6.72;3.20;;;;;;;17.43;78.19;100085.13;4896597;29;20052;-65
2022/08/12 01:38:24;;;;;;;9.63;3.25;;;;;;;17.56;78.15;100104.97;4896423;29;20457;-65
2022/08/12 01:40:50;;;;;;;5.60;2.78;;;;;;;17.60;77.76;100106.53;4897283;29;20036;-65
2022/08/12 01:43:20;;;;;;;5.50;2.90;;;;;;;17.59;76.21;100099.44;4897208;29;20048;-65
2022/08/12 01:46:04;;;;;;;4.03;2.80;;;;;;;17.60;75.89;100101.16;4897725;29;20111;-65
2022/08/12 01:48:49;;;;;;;6.43;2.90;;;;;;;17.58;75.73;100103.06;4896912;29;20033;-64
2022/08/12 01:51:41;;;;;;;5.13;2.92;;;;;;;17.54;75.27;100098.84;4897201;29;20028;-64
2022/08/12 01:54:16;;;;;;;4.85;2.88;;;;;;;17.51;76.05;100099.00;4896828;29;20461;-64
2022/08/12 01:56:54;;;;;;;4.57;2.83;;;;;;;17.45;75.58;100101.16;4896741;29;20071;-64
2022/08/12 01:59:55;;;;;;;7.07;3.10;;;;;;;17.46;75.89;100093.03;4896721;29;20058;-64
2022/08/12 02:02:26;;;;;;;5.18;2.83;;;;;;;17.43;75.78;100098.56;4897441;29;20067;-64
2022/08/12 02:11:39;;;;;;;4.03;2.63;;;;;;;17.40;75.51;100092.50;4897123;29;20043;-64
2022/08/12 02:14:17;;;;;;;5.93;2.65;;;;;;;17.31;76.02;100093.94;4899516;29;20027;-65
2022/08/12 02:17:09;;;;;;;5.32;2.70;;;;;;;17.27;75.63;100095.06;4897194;29;20035;-64
2022/08/12 02:20:28;;;;;;;5.72;2.83;;;;;;;17.22;75.52;100091.78;4897233;29;20063;-64
2022/08/12 02:22:56;;;;;;;5.40;2.80;;;;;;;17.19;75.55;100097.34;4884443;29;20049;-64
2022/08/12 02:25:49;;;;;;;5.28;2.58;;;;;;;17.22;75.19;100090.91;4896890;29;20060;-65
2022/08/12 02:28:14;;;;;;;5.95;2.75;;;;;;;17.21;74.61;100090.06;4895149;29;20045;-65
2022/08/12 02:30:41;;;;;;;4.22;2.40;;;;;;;17.19;73.53;100081.19;4896940;29;20047;-65
2022/08/12 02:33:06;;;;;;;5.15;3.25;;;;;;;17.25;74.42;100088.06;4896614;29;20060;-65
2022/08/12 02:35:35;;;;;;;6.50;3.58;;;;;;;17.28;73.26;100077.97;4896989;29;20111;-65
2022/08/12 02:38:07;;;;;;;9.20;4.05;;;;;;;17.32;73.80;100075.97;4896858;29;20067;-65
2022/08/12 02:40:36;;;;;;;9.85;3.88;;;;;;;17.32;73.66;100076.84;4896689;29;20096;-65
2022/08/12 02:43:25;;;;;;;5.18;3.03;;;;;;;17.29;73.50;100079.72;4897228;29;20043;-65
2022/08/12 02:45:56;;;;;;;7.97;3.17;;;;;;;17.31;73.75;100072.44;4871729;29;20051;-65
2022/08/12 02:48:29;;;;;;;4.95;3.15;;;;;;;17.31;74.42;100071.56;4877780;29;20474;-65
2022/08/12 02:51:00;;;;;;;4.00;2.78;;;;;;;17.29;74.72;100079.72;4878206;29;20116;-64
2022/08/12 02:53:27;;;;;;;6.18;3.03;;;;;;;17.31;74.43;100077.81;4886911;29;20084;-65
2022/08/12 02:55:56;;;;;;;4.70;2.95;;;;;;;17.34;74.39;100066.88;4895742;29;20029;-65
2022/08/12 02:58:22;;;;;;;5.45;3.03;;;;;;;17.34;74.51;100066.88;4895467;29;20028;-64
2022/08/12 03:00:48;;;;;;;5.07;2.80;;;;;;;17.35;73.83;100063.19;4895412;29;20063;-64
2022/08/12 03:03:14;;;;;;;5.78;3.00;;;;;;;17.33;72.50;100059.72;4895340;29;20037;-64
2022/08/12 03:05:57;;;;;;;4.90;2.80;;;;;;;17.30;72.79;100069.81;4895355;29;20028;-64
2022/08/12 03:08:29;;;;;;;11.50;3.58;;;;;;;17.23;73.33;100063.94;4895788;29;20036;-64
2022/08/12 03:11:02;;;;;;;5.50;2.78;;;;;;;17.21;73.09;100073.91;4896385;29;20047;-65
2022/08/12 03:13:32;;;;;;;6.43;3.03;;;;;;;17.17;73.19;100063.41;4896057;29;20048;-65
2022/08/12 03:15:58;;;;;;;4.50;2.70;;;;;;;17.23;72.97;100074.69;4896197;29;20396;-65
2022/08/12 03:18:30;;;;;;;3.78;2.65;;;;;;;17.21;73.24;100073.91;4896200;29;20430;-65
2022/08/12 03:21:00;;;;;;;5.97;3.13;;;;;;;17.18;73.84;100070.53;4896134;29;20032;-64
2022/08/12 03:23:27;;;;;;;5.22;3.00;;;;;;;17.16;74.10;100083.19;4896166;29;20037;-64
2022/08/12 03:25:57;;;;;;;5.57;3.13;;;;;;;17.09;73.18;100080.00;4895906;29;20033;-64
2022/08/12 03:31:08;;;;;;;5.25;3.00;;;;;;;17.03;73.35;100083.06;4896163;29;20096;-64
2022/08/12 03:33:37;;;;;;;5.88;2.90;;;;;;;17.00;72.95;100078.72;4895607;29;20024;-64
2022/08/12 03:36:08;;;;;;;4.20;2.92;;;;;;;16.95;73.56;100075.41;4895923;29;20024;-64
2022/08/12 03:38:39;;;;;;;6.10;3.13;;;;;;;16.87;73.76;100071.44;4895527;29;20032;-64
2022/08/12 04:00:44;;;;;;;9.68;3.10;;;;;;;16.91;73.55;100097.19;4899467;29;20119;-64
2022/08/12 04:03:56;;;;;;;5.35;3.20;;;;;;;16.92;73.12;100098.91;4899246;29;20083;-64
2022/08/12 04:05:56;;;;;;;4.80;2.80;;;;;;;17.03;73.68;100089.28;4869039;29;20052;-64
2022/08/12 04:08:24;;;;;;;5.03;2.63;;;;;;;17.08;73.40;100094.41;4879993;29;20046;-64
2022/08/12 04:13:34;;;;;;;4.07;2.67;;;;;;;17.17;71.60;100101.91;4879584;29;20378;-64
2022/08/12 04:16:01;;;;;;;5.65;2.80;;;;;;;17.14;72.12;100096.72;4879443;29;20028;-64
2022/08/12 04:18:27;;;;;;;5.10;2.90;;;;;;;17.15;72.14;100092.22;4879688;29;20062;-64
2022/08/12 04:20:53;;;;;;;4.50;3.30;;;;;;;17.05;73.03;100086.50;4879581;29;20025;-64
2022/08/12 04:23:20;;;;;;;4.63;2.53;;;;;;;17.07;72.74;100098.03;4888701;29;20481;-63
2022/08/12 04:25:46;;;;;;;3.45;2.40;;;;;;;17.07;72.93;100096.22;4899017;29;20103;-64
2022/08/12 04:28:11;;;;;;;11.13;3.38;;;;;;;17.10;71.95;100095.16;4899021;29;20036;-64
2022/08/12 04:30:39;;;;;;;6.57;2.80;;;;;;;17.13;72.32;100092.31;4881937;29;20028;-64
2022/08/12 04:33:08;;;;;;;5.32;2.72;;;;;;;17.09;71.99;100102.38;4898860;29;20216;-64
2022/08/12 04:35:34;;;;;;;13.07;3.15;;;;;;;17.10;71.88;100101.41;4899241;29;20032;-64
2022/08/12 04:38:00;;;;;;;6.72;2.70;;;;;;;17.10;71.24;100097.84;4901382;29;20025;-64
2022/08/12 04:40:29;;;;;;;5.07;2.40;;;;;;;17.20;71.53;100109.81;4898914;29;20036;-64
2022/08/12 04:42:54;;;;;;;8.95;3.05;;;;;;;17.23;71.88;100112.34;4881762;29;20127;-64
2022/08/12 04:45:20;;;;;;;7.63;2.88;;;;;;;17.24;71.47;100119.44;4898620;29;20711;-64
2022/08/12 04:47:46;;;;;;;7.47;3.35;;;;;;;17.25;70.96;100121.16;4898806;29;20072;-64
2022/08/12 04:50:16;;;;;;;7.95;3.00;;;;;;;17.34;69.72;100123.31;4897895;29;20048;-64
2022/08/12 04:52:42;;;;;;;13.85;3.28;;;;;;;17.40;69.45;100120.28;4897728;29;20064;-64
2022/08/12 04:55:09;;;;;;;4.60;2.55;;;;;;;17.46;68.98;100119.94;4897607;29;20135;-64
2022/08/12 04:57:35;;;;;;;8.23;2.72;;;;;;;17.52;69.16;100122.28;4896091;29;20032;-64
2022/08/12 05:00:05;;;;;;;4.53;2.33;;;;;;;17.49;69.62;100119.78;4897340;29;20119;-64
2022/08/12 05:02:31;;;;;;;8.10;2.30;;;;;;;17.59;68.79;100123.66;4897380;29;20033;-64
2022/08/12 05:04:57;;;;;;;4.72;2.20;;;;;;;17.61;69.74;100119.03;4897891;29;20171;-64
2022/08/12 05:07:22;;;;;;;7.55;2.65;;;;;;;17.64;68.98;100121.56;4898374;29;20031;-64
2022/08/12 05:09:48;;;;;;;5.55;2.60;;;;;;;17.67;70.14;100129.44;4898382;29;20036;-64
2022/08/12 05:12:18;;;;;;;4.95;2.60;;;;;;;17.68;70.15;100125.78;4881382;29;20080;-64
2022/08/12 05:14:44;;;;;;;4.18;2.08;;;;;;;17.73;69.58;100122.81;4898466;29;20111;-64
2022/08/12 05:17:09;;;;;;;5.38;2.67;;;;;;;17.81;69.21;100126.78;4898397;29;20108;-64
2022/08/12 05:19:35;;;;;;;6.65;2.55;;;;;;;17.88;70.37;100122.75;4898205;29;20761;-64
2022/08/12 05:22:00;;;;;;;4.18;3.00;;;;;;;18.08;69.77;100133.19;4898219;29;20028;-64
2022/08/12 05:24:25;;;;;;;5.45;2.63;;;;;;;18.21;68.32;100131.47;4898069;29;20111;-64
2022/08/12 05:26:51;;;;;;;10.73;2.60;;;;;;;18.35;67.58;100136.00;4897887;29;20397;-64
2022/08/12 05:29:17;;;;;;;4.32;2.28;;;;;;;18.48;66.97;100133.44;4897853;29;20028;-64
2022/08/12 05:31:42;;;;;;;7.03;2.83;;;;;;;18.59;66.17;100136.31;4896962;29;20612;-64
2022/08/12 05:34:12;;;;;;;4.18;2.25;;;;;;;18.79;66.05;100144.00;4878741;29;20717;-64
2022/08/12 05:36:38;;;;;;;4.30;2.10;;;;;;;18.95;65.42;100139.34;4896040;29;20107;-64
2022/08/12 05:39:03;;;;;;;5.43;2.45;;;;;;;19.05;65.14;100132.38;4895849;29;20243;-64
2022/08/12 05:41:31;;;;;;;4.18;2.17;;;;;;;19.18;64.59;100134.19;4896364;29;20024;-64
2022/08/12 05:44:03;;;;;;;6.70;2.30;;;;;;;19.45;63.13;100134.22;4896230;29;20043;-64
2022/08/12 05:46:30;;;;;;;4.80;2.10;;;;;;;19.59;62.72;100140.41;4897468;29;20038;-64
2022/08/12 05:48:59;;;;;;;8.60;2.20;;;;;;;19.67;61.95;100138.06;4897269;29;20024;-64
2022/08/12 05:51:26;;;;;;;3.17;1.90;;;;;;;19.80;61.01;100139.94;4897685;29;20028;-64
2022/08/12 05:53:53;;;;;;;5.80;2.38;;;;;;;19.85;60.65;100144.03;4899542;29;20480;-64
2022/08/12 05:56:24;;;;;;;4.55;2.58;;;;;;;20.07;59.76;100148.81;4897404;29;20075;-64
2022/08/12 05:58:51;;;;;;;4.00;2.15;;;;;;;20.24;58.82;100153.97;4897739;29;20032;-64
2022/08/12 06:01:17;;;;;;;3.70;2.20;;;;;;;20.43;59.92;100154.38;4898981;29;20080;-64
2022/08/12 06:03:43;;;;;;;4.30;2.20;;;;;;;20.52;57.96;100160.03;4897661;29;20148;-64
2022/08/12 06:06:09;;;;;;;5.85;1.90;;;;;;;20.67;55.87;100147.25;4897337;29;20115;-64
2022/08/12 06:08:35;;;;;;;3.72;1.90;;;;;;;20.82;56.07;100149.69;4896752;29;20032;-64
2022/08/12 06:11:03;;;;;;;3.53;1.80;;;;;;;20.99;55.87;100155.78;4897200;29;20032;-64
2022/08/12 06:13:29;;;;;;;6.22;2.10;;;;;;;21.03;54.12;100136.50;4894975;29;20372;-64
2022/08/12 06:15:56;;;;;;;2.78;2.03;;;;;;;21.24;54.85;100155.69;4895622;29;20380;-64
2022/08/12 06:18:22;;;;;;;4.13;1.98;;;;;;;21.40;53.96;100156.28;4895768;29;20032;-64
2022/08/12 06:20:52;;;;;;;3.33;1.90;;;;;;;21.56;53.14;100152.31;4894753;29;20033;-64
2022/08/12 06:23:19;;;;;;;7.82;2.00;;;;;;;21.72;53.15;100160.13;4892838;29;20036;-64
2022/08/12 06:25:45;;;;;;;4.57;2.05;;;;;;;21.90;53.12;100150.63;4895096;29;20029;-64
2022/08/12 06:28:18;;;;;;;4.80;2.60;;;;;;;22.10;54.11;100153.56;4895263;29;20036;-64
2022/08/12 06:30:44;;;;;;;4.43;1.88;;;;;;;22.37;52.80;100155.97;4895141;29;20095;-64
2022/08/12 06:33:10;;;;;;;2.92;1.80;;;;;;;22.55;52.30;100153.66;4894742;29;20513;-64
2022/08/12 06:35:37;;;;;;;2.55;1.58;;;;;;;22.64;51.04;100151.06;4896181;29;20111;-64
2022/08/12 06:38:02;;;;;;;3.00;1.65;;;;;;;22.77;50.93;100159.94;4894387;29;20540;-64
2022/08/12 06:43:12;;;;;;;3.80;2.13;;;;;;;23.02;50.66;100131.69;4887280;29;20100;-64
2022/08/12 06:45:44;;;;;;;3.90;2.00;;;;;;;23.19;48.54;100148.34;4879644;29;20028;-64
2022/08/12 06:48:10;;;;;;;5.22;2.03;;;;;;;23.35;50.26;100137.97;4894777;29;20037;-64
2022/08/12 06:50:37;;;;;;;4.35;1.80;;;;;;;23.54;48.61;100139.13;4894604;29;20462;-64
2022/08/12 06:53:04;;;;;;;4.97;2.00;;;;;;;23.73;48.93;100142.88;4894870;29;20466;-64
2022/08/12 06:55:30;;;;;;;2.97;1.60;;;;;;;23.96;48.73;100146.34;4895032;29;20036;-64
2022/08/12 06:58:01;;;;;;;3.63;1.92;;;;;;;24.23;47.76;100144.03;4895023;29;20024;-64
2022/08/12 07:00:29;;;;;;;4.32;1.85;;;;;;;24.37;46.35;100146.41;4893498;29;20052;-64
2022/08/12 07:02:56;;;;;;;3.40;2.25;;;;;;;24.60;46.35;100137.94;4894535;29;20036;-64
2022/08/12 07:05:25;;;;;;;10.15;2.03;;;;;;;24.85;45.95;100138.50;4882266;29;20080;-64
2022/08/12 07:07:54;;;;;;;4.60;1.67;;;;;;;25.04;44.46;100134.00;4893877;29;20413;-64
2022/08/12 07:10:24;;;;;;;4.40;1.70;;;;;;;25.17;45.05;100142.78;4894336;29;20036;-64
2022/08/12 07:12:59;;;;;;;2.13;1.55;;;;;;;25.38;44.12;100131.84;4894065;29;20024;-64
2022/08/12 07:15:25;;;;;;;3.45;1.77;;;;;;;25.56;43.12;100141.91;4891934;29;20039;-64
2022/08/12 07:20:30;;;;;;;4.45;2.00;;;;;;;26.05;42.89;100135.47;4893391;29;20033;-64
2022/08/12 07:23:00;;;;;;;4.13;1.80;;;;;;;26.43;41.77;100129.97;4894050;29;20742;-64
2022/08/12 07:25:31;;;;;;;4.93;1.80;;;;;;;26.61;41.18;100128.19;4882628;29;20088;-64
2022/08/12 07:28:01;;;;;;;2.30;1.50;;;;;;;26.73;40.49;100118.84;4894691;29;20029;-64
2022/08/12 07:30:31;;;;;;;3.88;1.80;;;;;;;26.99;39.53;100129.94;4893717;29;20041;-64
2022/08/12 07:33:00;;;;;;;3.30;1.80;;;;;;;27.45;40.83;100138.03;4893821;29;20060;-64
2022/08/12 07:35:27;;;;;;;3.03;1.55;;;;;;;27.89;40.29;100134.41;4886872;29;20028;-64
2022/08/12 07:37:54;;;;;;;2.55;1.52;;;;;;;28.19;38.18;100142.22;4894437;29;20055;-64
2022/08/12 07:40:19;;;;;;;5.72;2.15;;;;;;;28.21;37.59;100140.19;4890543;29;20029;-64
2022/08/12 07:42:45;;;;;;;5.35;1.85;;;;;;;28.22;37.44;100147.34;4890245;29;20037;-64
2022/08/12 07:45:12;;;;;;;5.05;1.67;;;;;;;28.39;37.90;100154.69;4891345;29;20033;-64
2022/08/12 07:47:42;;;;;;;3.47;1.85;;;;;;;28.63;37.70;100140.34;4886438;29;20093;-64
2022/08/12 07:50:09;;;;;;;2.45;1.35;;;;;;;28.61;35.91;100136.03;4875050;29;20127;-64
2022/08/12 07:52:40;;;;;;;4.63;1.80;;;;;;;28.93;37.27;100141.72;4893440;29;20033;-64
2022/08/12 07:55:06;;;;;;;2.67;1.67;;;;;;;29.44;36.04;100136.13;4896297;29;20669;-65
2022/08/12 07:57:33;;;;;;;5.90;1.65;;;;;;;29.69;35.93;100135.19;4893605;29;20104;-65
2022/08/12 08:00:05;;;;;;;2.85;1.50;;;;;;;29.90;35.38;100142.94;4893041;29;20057;-65
2022/08/12 08:02:35;;;;;;;4.60;1.77;;;;;;;30.01;35.42;100146.22;4894882;29;20055;-65
2022/08/12 08:05:02;;;;;;;2.95;1.50;;;;;;;30.06;36.03;100138.31;4897364;29;20285;-65
2022/08/12 08:07:28;;;;;;;3.70;1.90;;;;;;;30.27;34.61;100144.19;4894200;29;20024;-65
2022/08/12 08:09:59;;;;;;;3.58;1.60;;;;;;;30.53;34.20;100150.34;4892291;29;20040;-65
2022/08/12 08:15:13;;;;;;;2.33;1.55;;;;;;;31.23;34.25;100134.88;4887105;29;20047;-65
2022/08/12 08:17:39;;;;;;;4.03;1.80;;;;;;;31.25;33.55;100143.81;4894478;29;20080;-63
2022/08/12 08:20:07;;;;;;;4.60;1.45;;;;;;;31.32;33.96;100149.50;4882141;29;20033;-63
2022/08/12 08:22:37;;;;;;;3.90;1.70;;;;;;;31.51;32.82;100138.03;4894581;29;20035;-63
2022/08/12 08:25:06;;;;;;;2.42;1.42;;;;;;;31.49;33.37;100140.97;4876252;29;20033;-63
2022/08/12 08:27:44;;;;;;;3.45;1.70;;;;;;;31.60;33.19;100148.81;4879946;29;20477;-63
2022/08/12 08:30:11;;;;;;;3.15;1.52;;;;;;;31.87;32.55;100145.56;4876197;29;20058;-63
2022/08/12 08:32:36;;;;;;;6.22;1.75;;;;;;;31.97;33.75;100156.34;4885842;29;20108;-63
2022/08/12 08:35:02;;;;;;;3.38;1.40;;;;;;;32.11;33.83;100148.13;4896033;29;20547;-63
2022/08/12 08:37:27;;;;;;;11.02;1.98;;;;;;;32.41;32.46;100142.75;4897903;29;20028;-63
2022/08/12 08:39:53;;;;;;;3.55;1.38;;;;;;;32.42;31.95;100144.47;4897618;29;20064;-63
2022/08/12 08:42:38;;;;;;;3.55;1.65;;;;;;;32.46;32.25;100140.28;4896343;29;20156;-64
2022/08/12 08:45:11;;;;;;;2.92;1.55;;;;;;;32.74;32.59;100133.09;4880486;29;20033;-63
2022/08/12 08:47:47;;;;;;;7.28;1.60;;;;;;;33.25;31.51;100138.56;4897925;29;20033;-63
2022/08/12 08:50:16;;;;;;;3.47;1.58;;;;;;;33.44;31.37;100119.72;4897748;29;20041;-63
2022/08/12 08:52:42;;;;;;;4.13;1.60;;;;;;;33.82;30.92;100135.03;4897920;29;20029;-64
2022/08/12 08:55:15;;;;;;;6.63;1.65;;;;;;;33.87;30.69;100138.91;4898043;29;20028;-64
2022/08/12 08:57:48;;;;;;;6.32;1.58;;;;;;;33.92;30.71;100130.09;4897924;29;20429;-64
2022/08/12 09:00:18;;;;;;;2.13;1.05;;;;;;;34.17;29.95;100129.47;4897832;29;20511;-64
2022/08/12 09:02:45;;;;;;;3.45;1.10;;;;;;;34.12;30.67;100133.91;4897827;29;20036;-64
2022/08/12 09:05:11;;;;;;;6.95;1.50;;;;;;;34.38;30.26;100134.16;4898577;29;20084;-64
2022/08/12 09:07:44;;;;;;;6.43;1.52;;;;;;;34.57;30.18;100125.19;4880263;29;20045;-64
2022/08/12 09:10:12;;;;;;;3.35;1.42;;;;;;;34.77;28.58;100120.66;4879689;29;20508;-64
2022/08/12 09:15:23;;;;;;;3.83;1.50;;;;;;;34.61;29.97;100120.97;4879577;29;20092;-65
2022/08/12 09:17:56;;;;;;;3.72;1.45;;;;;;;34.42;29.44;100116.13;4879322;29;20108;-65
2022/08/12 09:20:26;;;;;;;;;;;;;;;34.56;29.72;100112.44;4879538;29;20041;-65
2022/08/12 09:22:53;;;;;;;3.83;1.63;;;;;;;34.68;29.47;100112.72;4883675;29;19915;-65
2022/08/12 09:25:20;;;;;;;5.20;1.33;;;;;;;34.83;28.25;100106.00;4897329;29;20377;-65
2022/08/12 09:27:46;;;;;;;2.50;1.52;;;;;;;35.00;28.88;100115.72;4896786;29;20034;-65
2022/08/12 09:30:14;;;;;;;2.00;1.23;;;;;;;35.17;30.07;100100.50;4897365;29;20544;-65
2022/08/12 09:32:41;;;;;;;3.95;1.63;;;;;;;35.34;28.63;100093.53;4897387;29;20032;-65
2022/08/12 09:35:07;;;;;;;2.97;1.80;;;;;;;35.39;28.20;100099.34;4897789;29;20051;-65
2022/08/12 09:37:33;;;;;;;1.50;1.20;;;;;;;35.52;27.48;100096.63;4897193;29;20445;-65
2022/08/12 09:39:58;;;;;;;2.67;1.33;;;;;;;35.68;28.08;100087.09;4880506;29;20029;-65
2022/08/12 09:45:22;;;;;;;3.30;1.40;;;;;;;35.76;26.66;100068.38;4879637;29;20056;-68
2022/08/12 09:47:52;;;;;;;5.28;1.30;;;;;;;35.90;26.96;100076.72;4896951;29;20028;-67
2022/08/12 09:50:18;;;;;;;2.15;1.38;;;;;;;35.94;27.49;100078.00;4882817;29;20382;-67
2022/08/12 09:52:44;;;;;;;2.00;1.10;;;;;;;36.10;26.80;100066.50;4883242;29;20029;-67
2022/08/12 09:55:13;;;;;;;2.30;1.20;;;;;;;36.01;26.52;100070.56;4897707;29;20108;-67
2022/08/12 09:57:38;;;;;;;3.58;1.40;;;;;;;35.86;27.12;100061.59;4896978;29;20513;-67
2022/08/12 10:00:06;;;;;;;2.35;1.23;;;;;;;35.77;26.91;100063.66;4902488;29;20091;-67
2022/08/12 10:02:36;;;;;;;3.03;1.33;;;;;;;36.06;27.26;100051.38;4889964;29;20032;-67
2022/08/12 10:05:02;;;;;;;2.53;1.30;;;;;;;36.41;26.03;100033.50;4877980;29;20029;-67
2022/08/12 10:07:29;;;;;;;2.67;1.10;;;;;;;36.58;25.57;100034.72;4878069;29;20025;-67
2022/08/12 10:09:54;;;;;;;1.35;0.90;;;;;;;36.36;24.20;100030.53;4878445;29;20035;-67
2022/08/12 10:15:04;;;;;;;3.28;0.90;;;;;;;35.07;24.32;100028.13;4878479;29;20036;-67
2022/08/12 10:17:29;;;;;;;3.28;0.90;;;;;;;35.43;23.95;100034.22;4878563;29;20032;-67
2022/08/12 10:19:55;;;;;;;2.53;1.02;;;;;;;35.79;24.55;100026.41;4878629;29;20518;-66
2022/08/12 10:22:20;;;;;;;1.65;0.93;;;;;;;35.86;24.91;100029.22;4879609;29;20055;-67
2022/08/12 10:29:35;;;;;;;2.42;0.98;;;;;;;36.20;24.41;100020.69;4878816;29;20569;-66
2022/08/12 10:30:16;;;;;;;2.25;1.10;;;;;;;36.09;23.90;100031.56;4877532;29;20124;-67
2022/08/12 10:32:42;;;;;;;1.63;0.88;;;;;;;35.60;22.85;100024.44;4876719;29;20486;-67
2022/08/12 10:35:08;;;;;;;1.50;0.80;;;;;;;35.65;24.72;100010.00;4876748;29;20052;-66
2022/08/12 10:37:34;;;;;;;2.10;0.85;;;;;;;35.77;24.08;100020.22;4876632;29;20056;-67
2022/08/12 10:39:59;;;;;;;4.07;0.93;;;;;;;36.05;25.05;100008.97;4878021;29;20032;-66
2022/08/12 10:45:10;;;;;;;2.08;1.05;;;;;;;36.49;23.81;100013.88;4896801;29;20560;-67
2022/08/12 10:47:36;;;;;;;5.20;0.77;;;;;;;36.82;23.41;99992.47;4897094;29;20065;-67
2022/08/12 10:50:06;;;;;;;1.35;0.90;;;;;;;36.35;22.35;100010.25;4885392;29;20048;-67
2022/08/12 10:52:31;;;;;;;1.83;0.90;;;;;;;36.58;23.90;100007.00;4880405;29;20047;-67
2022/08/12 10:54:58;;;;;;;1.08;0.65;;;;;;;36.63;22.66;100001.66;4892897;29;20033;-67
2022/08/12 10:57:25;;;;;;;2.83;1.00;;;;;;;36.50;21.81;100004.47;4878140;29;20029;-67
2022/08/12 10:59:56;;;;;;;2.33;0.80;;;;;;;37.03;22.92;100003.25;4877776;29;20056;-67
2022/08/12 11:02:23;;;;;;;1.60;0.73;;;;;;;37.26;21.29;99999.97;4877980;29;20044;-67
2022/08/12 11:04:49;;;;;;;6.45;1.30;;;;;;;37.20;22.13;99990.56;4878037;29;20112;-67
2022/08/12 11:07:17;;;;;;;2.67;0.85;;;;;;;37.38;22.41;100004.56;4877533;29;20036;-67
2022/08/12 11:09:44;;;;;;;3.25;0.77;;;;;;;37.52;22.83;100000.66;4876522;29;20032;-67
2022/08/12 11:12:10;;;;;;;1.88;0.80;;;;;;;37.17;22.46;99993.78;4895628;29;20040;-67
2022/08/12 11:14:37;;;;;;;2.08;1.10;;;;;;;37.05;22.64;99995.56;4895775;29;20473;-67
2022/08/12 11:17:05;;;;;;;3.63;0.95;;;;;;;37.10;21.35;99992.13;4895769;29;20042;-67
2022/08/12 11:19:33;;;;;;;1.38;0.60;;;;;;;36.90;22.25;99995.84;4895534;29;20377;-66
2022/08/12 11:21:59;;;;;;;2.58;1.17;;;;;;;36.69;21.51;99986.94;4895687;29;21193;-66
2022/08/12 11:24:25;;;;;;;1.98;1.00;;;;;;;36.52;22.54;99991.25;4896026;29;20028;-66
2022/08/12 11:26:52;;;;;;;1.75;1.02;;;;;;;37.24;22.17;99990.97;4889664;29;20042;-66
2022/08/12 11:29:20;;;;;;;1.70;0.75;;;;;;;37.48;21.62;99987.47;4887953;29;20039;-64
2022/08/12 11:31:46;;;;;;;2.20;0.70;;;;;;;37.11;21.06;99991.91;4896209;29;20037;-65
2022/08/12 11:34:11;;;;;;;1.63;0.70;;;;;;;36.53;21.08;99981.84;4896172;29;20120;-64
2022/08/12 11:36:38;;;;;;;1.38;0.90;;;;;;;36.80;22.21;99977.97;4896237;29;20063;-64
2022/08/12 11:39:04;;;;;;;3.05;0.98;;;;;;;36.88;21.35;99978.59;4896044;29;20040;-64
2022/08/12 11:41:29;;;;;;;1.60;0.70;;;;;;;36.96;22.40;99983.88;4896134;29;20033;-64
2022/08/12 11:43:55;;;;;;;1.90;0.90;;;;;;;36.60;22.19;99975.25;4896045;29;20503;-64
2022/08/12 11:46:20;;;;;;;1.27;0.70;;;;;;;36.94;23.74;99963.81;4896078;29;20028;-64
2022/08/12 11:48:46;;;;;;;1.77;1.08;;;;;;;37.33;22.35;99968.34;4895977;29;20083;-64
2022/08/12 11:51:11;;;;;;;2.75;1.17;;;;;;;37.00;22.71;99970.41;4898345;29;20048;-64
2022/08/12 11:53:37;;;;;;;1.48;0.82;;;;;;;36.63;21.48;99968.38;4895834;29;20025;-64
2022/08/12 11:56:05;;;;;;;2.00;1.00;;;;;;;36.66;21.31;99970.72;4896376;29;20035;-64
2022/08/12 11:58:31;;;;;;;1.33;0.70;;;;;;;36.39;21.74;99963.56;4896081;29;20111;-65
2022/08/12 12:00:56;;;;;;;3.88;1.10;;;;;;;36.55;22.22;99965.88;4895804;29;20200;-65
2022/08/12 12:03:22;;;;;;;0.90;0.70;;;;;;;36.99;22.77;99955.69;4895755;29;20029;-65
2022/08/12 12:05:47;;;;;;;10.65;4.78;;;;;;;37.60;21.79;99947.63;4896813;29;20104;-65
2022/08/12 12:08:23;;;;;;;10.40;4.75;;;;;;;38.24;21.31;99946.50;4918352;29;20099;-65
2022/08/12 12:10:50;;;;;;;4.50;0.70;;;;;;;37.40;20.81;99941.38;4918434;29;20499;-66
2022/08/12 12:13:17;;;;;;;6.57;2.58;;;;;;;37.46;21.76;99946.06;4918559;29;20031;-65
2022/08/12 12:15:42;;;;;;;3.22;1.50;;;;;;;38.07;21.25;99940.63;4899389;29;20455;-65
2022/08/12 12:18:25;;;;;;;6.97;3.13;;;;;;;38.46;21.87;99937.47;4899385;29;20028;-65
2022/08/12 12:20:57;;;;;;;3.85;1.40;;;;;;;38.38;21.13;99934.13;4899333;29;20060;-65
2022/08/12 12:23:23;;;;;;;27.15;11.70;;;;;;;38.50;21.24;99924.81;4889921;29;20028;-65
2022/08/12 12:25:48;;;;;;;14.00;6.25;;;;;;;38.58;21.45;99927.31;4882131;29;20037;-65
2022/08/12 12:28:15;;;;;;;8.05;3.10;;;;;;;38.38;21.51;99929.44;4880520;29;20033;-65
2022/08/12 12:30:40;;;;;;;2.92;1.40;;;;;;;38.07;20.99;99921.19;4880381;29;20632;-65
2022/08/12 12:33:08;;;;;;;1.92;1.02;;;;;;;38.13;21.44;99926.69;4879855;29;20025;-65
2022/08/12 12:35:34;;;;;;;9.00;3.55;;;;;;;38.12;21.79;99918.56;4879842;29;20025;-65
2022/08/12 12:38:03;;;;;;;4.57;2.10;;;;;;;37.74;21.12;99893.72;4879989;29;20120;-65
2022/08/12 12:40:30;;;;;;;21.27;10.82;;;;;;;37.77;21.33;99904.38;4879708;29;20025;-65
2022/08/12 12:42:56;;;;;;;13.75;6.32;;;;;;;37.51;21.07;99904.59;4879906;29;20031;-64
2022/08/12 12:45:22;;;;;;;11.57;5.57;;;;;;;37.46;22.55;99911.88;4882517;29;20040;-65
2022/08/12 12:47:59;;;;;;;4.13;1.00;;;;;;;37.57;21.40;99919.47;4901317;29;20460;-65
2022/08/12 12:50:36;;;;;;;1.65;0.90;;;;;;;37.88;22.08;99898.06;4899120;29;20033;-65
2022/08/12 12:53:07;;;;;;;1.50;0.80;;;;;;;38.08;21.20;99893.16;4894713;29;20425;-64
2022/08/12 12:55:34;;;;;;;3.30;0.98;;;;;;;38.18;21.50;99893.53;4880222;29;20397;-64
2022/08/12 12:58:15;;;;;;;7.07;3.00;;;;;;;38.12;22.09;99896.34;4898242;29;20060;-64
2022/08/12 13:00:43;;;;;;;7.82;1.10;;;;;;;37.55;21.52;99891.06;4898552;29;20513;-65
2022/08/12 13:03:11;;;;;;;5.50;2.78;;;;;;;37.36;21.51;99890.19;4898188;29;20101;-65
2022/08/12 13:05:38;;;;;;;8.88;3.17;;;;;;;37.64;22.26;99884.16;4898361;29;20447;-64
2022/08/12 13:08:25;;;;;;;5.80;1.83;;;;;;;38.02;22.40;99890.47;4898671;29;20427;-65
2022/08/12 13:10:51;;;;;;;3.33;0.93;;;;;;;38.44;22.02;99894.31;4897928;29;20385;-64
2022/08/12 13:13:18;;;;;;;4.03;2.58;;;;;;;38.39;21.82;99883.84;4898197;29;20028;-64
2022/08/12 13:15:43;;;;;;;3.28;1.20;;;;;;;38.05;22.26;99892.78;4897654;29;20032;-66
2022/08/12 13:18:09;;;;;;;3.30;1.10;;;;;;;37.70;21.54;99891.63;4896566;29;20084;-65
2022/08/12 13:20:34;;;;;;;4.55;1.13;;;;;;;37.68;21.80;99889.03;4879830;29;20033;-65